Time;durP1;ratioP1;P1;durP2;ratioP2;P2;SDS_P1;SDS_P2;PMS_P1;PMS_P2;Temp;Humidity;BMP_temperature;BMP_pressure;BME280_temperature;BME280_humidity;BME280_pressure;Samples;Min_cycle;Max_cycle;Signal;HPM_P1;HPM_P2
2022/01/26 00:07:31;;;;;;;14.93;10.30;;;20.30;50.30;;;;;;4994769;28;20478;-63
2022/01/26 00:09:57;;;;;;;15.25;10.10;;;20.30;50.30;;;;;;4994181;28;20042;-64
2022/01/26 00:12:22;;;;;;;15.73;9.38;;;20.30;50.30;;;;;;4994988;28;20049;-63
2022/01/26 00:14:48;;;;;;;16.13;10.63;;;20.30;50.20;;;;;;4994121;28;20053;-64
2022/01/26 00:17:14;;;;;;;16.35;9.90;;;20.20;50.10;;;;;;4976788;28;20386;-64
2022/01/26 00:19:51;;;;;;;16.35;9.98;;;20.20;50.10;;;;;;4994478;28;20097;-63
2022/01/26 00:22:36;;;;;;;16.38;10.15;;;20.20;50.00;;;;;;4994903;28;20065;-63
2022/01/26 00:25:20;;;;;;;15.90;10.45;;;20.20;49.90;;;;;;4993654;28;20445;-64
2022/01/26 00:27:55;;;;;;;17.20;11.18;;;20.20;50.00;;;;;;4994599;28;20069;-64
2022/01/26 00:41:07;;;;;;;16.35;9.77;;;20.10;49.80;;;;;;4994393;28;20078;-64
2022/01/26 00:43:34;;;;;;;15.00;9.95;;;20.10;49.80;;;;;;4993848;28;20069;-64
2022/01/26 00:46:00;;;;;;;15.50;9.60;;;20.10;49.80;;;;;;4975560;28;20049;-64
2022/01/26 00:48:27;;;;;;;13.57;9.63;;;20.10;49.80;;;;;;4994014;28;20118;-64
2022/01/26 00:50:53;;;;;;;17.70;10.25;;;20.10;49.80;;;;;;4994316;28;20046;-64
2022/01/26 00:53:22;;;;;;;16.33;10.15;;;20.10;49.80;;;;;;4993441;28;20047;-64
2022/01/26 00:55:48;;;;;;;13.05;9.88;;;20.00;49.80;;;;;;4993572;28;20043;-64
2022/01/26 00:58:13;;;;;;;15.40;10.30;;;20.10;49.80;;;;;;4994195;28;20049;-63
2022/01/26 01:00:39;;;;;;;13.85;9.80;;;20.00;49.80;;;;;;4992701;28;20082;-64
2022/01/26 01:03:04;;;;;;;14.80;9.90;;;20.00;49.80;;;;;;4976234;28;20046;-64
2022/01/26 01:05:38;;;;;;;14.50;9.73;;;20.00;49.70;;;;;;4993736;28;20042;-64
2022/01/26 01:08:12;;;;;;;15.25;10.18;;;20.00;49.70;;;;;;4992952;28;20120;-64
2022/01/26 01:10:39;;;;;;;14.70;10.18;;;20.00;49.70;;;;;;4993144;28;20494;-63
2022/01/26 01:13:08;;;;;;;14.20;9.18;;;20.00;49.70;;;;;;4993448;28;20105;-64
2022/01/26 01:15:33;;;;;;;15.32;9.40;;;20.00;49.70;;;;;;4975061;28;20483;-64
2022/01/26 01:18:09;;;;;;;15.02;9.52;;;20.00;49.70;;;;;;4993581;28;20042;-64
2022/01/26 01:26:06;;;;;;;14.82;10.27;;;19.90;49.60;;;;;;5012725;28;20121;-64
2022/01/26 01:31:14;;;;;;;13.82;9.27;;;19.90;49.60;;;;;;5013397;28;20073;-63
2022/01/26 01:33:44;;;;;;;13.35;9.65;;;19.90;49.60;;;;;;5012884;28;20049;-63
2022/01/26 01:36:11;;;;;;;15.52;10.10;;;19.90;49.50;;;;;;5012288;28;20034;-64
2022/01/26 01:38:40;;;;;;;13.95;9.77;;;19.90;49.50;;;;;;5012847;28;20052;-63
2022/01/26 01:41:06;;;;;;;13.95;10.10;;;19.90;49.60;;;;;;4995352;28;20497;-64
2022/01/26 01:43:31;;;;;;;15.60;9.48;;;19.80;49.50;;;;;;5012042;28;20168;-64
2022/01/26 01:45:57;;;;;;;13.98;9.73;;;19.80;49.40;;;;;;4995291;28;20057;-64
2022/01/26 01:48:27;;;;;;;13.98;9.65;;;19.90;49.50;;;;;;5012825;28;20049;-64
2022/01/26 01:50:54;;;;;;;12.75;8.95;;;19.80;49.50;;;;;;5012754;28;20517;-64
2022/01/26 01:53:28;;;;;;;14.70;9.83;;;19.80;49.40;;;;;;5013056;28;20050;-64
2022/01/26 01:55:54;;;;;;;14.30;9.57;;;19.80;49.40;;;;;;5012318;28;20308;-64
2022/01/26 01:58:19;;;;;;;14.30;9.52;;;19.80;49.40;;;;;;5015238;28;20044;-64
2022/01/26 02:00:45;;;;;;;13.52;8.73;;;19.80;49.40;;;;;;5016547;28;20494;-63
2022/01/26 02:03:11;;;;;;;13.73;9.05;;;19.80;49.40;;;;;;5016145;28;20069;-64
2022/01/26 02:05:36;;;;;;;14.55;10.00;;;19.80;49.40;;;;;;5016287;28;20065;-64
2022/01/26 02:08:02;;;;;;;12.85;9.05;;;19.80;49.40;;;;;;4999254;28;20045;-64
2022/01/26 02:10:30;;;;;;;15.40;9.18;;;19.80;49.30;;;;;;5014553;28;20054;-64
2022/01/26 02:12:57;;;;;;;13.80;9.00;;;19.80;49.30;;;;;;5016849;28;20089;-63
2022/01/26 02:15:29;;;;;;;12.90;8.82;;;19.70;49.20;;;;;;5016826;28;20049;-64
2022/01/26 02:49:35;;;;;;;13.80;9.02;;;19.70;49.30;;;;;;5015842;28;20046;-63
2022/01/26 02:56:06;;;;;;;11.98;8.68;;;19.80;49.30;;;;;;4998199;28;20050;-63
2022/01/26 03:04:04;;;;;;;11.32;8.43;;;19.80;49.30;;;;;;4994142;28;20050;-63
2022/01/26 03:06:39;;;;;;;10.70;7.20;;;19.90;49.30;;;;;;4994928;28;20108;-63
2022/01/26 03:09:10;;;;;;;11.93;8.00;;;19.80;49.20;;;;;;4995857;28;20053;-63
2022/01/26 03:11:38;;;;;;;11.57;7.80;;;19.80;49.10;;;;;;4995624;28;20399;-63
2022/01/26 03:14:29;;;;;;;11.68;7.80;;;19.90;49.10;;;;;;4995185;28;20070;-63
2022/01/26 03:17:00;;;;;;;10.45;7.30;;;19.90;49.20;;;;;;4996243;28;20046;-63
2022/01/26 03:19:50;;;;;;;12.15;7.70;;;19.90;49.20;;;;;;4995873;28;20050;-64
2022/01/26 03:30:01;;;;;;;10.45;7.38;;;19.90;49.10;;;;;;4995946;28;20050;-63
2022/01/26 03:35:28;;;;;;;11.73;8.18;;;19.90;49.00;;;;;;4994948;28;20058;-63
2022/01/26 03:37:55;;;;;;;10.77;7.85;;;19.90;49.00;;;;;;4995756;28;20101;-63
2022/01/26 03:40:29;;;;;;;13.40;8.40;;;19.90;49.00;;;;;;4977958;28;20050;-63
2022/01/26 03:42:56;;;;;;;11.95;8.25;;;20.00;49.00;;;;;;4994846;28;20074;-63
2022/01/26 03:45:21;;;;;;;11.65;7.63;;;19.90;49.00;;;;;;4995629;28;20042;-63
2022/01/26 03:47:47;;;;;;;11.98;7.35;;;20.00;49.00;;;;;;4995307;28;20096;-63
2022/01/26 03:50:12;;;;;;;11.35;8.13;;;20.00;49.00;;;;;;4994642;28;20455;-63
2022/01/26 03:52:38;;;;;;;11.73;7.70;;;20.00;48.90;;;;;;4995107;28;20525;-63
2022/01/26 03:55:04;;;;;;;11.57;7.13;;;20.00;48.90;;;;;;4994372;28;20049;-63
2022/01/26 03:57:29;;;;;;;12.52;7.63;;;20.00;48.90;;;;;;4995065;28;20132;-63
2022/01/26 03:59:55;;;;;;;11.82;7.45;;;20.00;48.80;;;;;;4977441;28;20134;-63
2022/01/26 04:02:21;;;;;;;9.93;6.85;;;20.00;48.80;;;;;;4994412;28;20157;-63
2022/01/26 04:04:52;;;;;;;10.70;7.50;;;20.00;48.70;;;;;;4994937;28;20047;-63
2022/01/26 04:07:17;;;;;;;11.13;7.45;;;20.00;48.70;;;;;;4994939;28;20402;-63
2022/01/26 04:09:43;;;;;;;11.40;7.15;;;20.00;48.70;;;;;;4993969;28;20050;-63
2022/01/26 04:12:09;;;;;;;10.18;7.32;;;20.00;48.70;;;;;;4995016;28;20045;-63
2022/01/26 04:14:35;;;;;;;9.85;6.95;;;20.00;48.70;;;;;;4994464;28;20053;-63
2022/01/26 04:17:01;;;;;;;9.90;6.88;;;20.00;48.70;;;;;;4994300;28;20086;-63
2022/01/26 04:19:29;;;;;;;11.30;7.55;;;20.10;48.70;;;;;;4976435;28;20070;-63
2022/01/26 04:22:14;;;;;;;11.32;7.38;;;20.00;48.60;;;;;;4977218;28;20398;-63
2022/01/26 04:24:45;;;;;;;9.85;6.97;;;20.00;48.70;;;;;;4993882;28;20057;-63
2022/01/26 04:29:42;;;;;;;10.48;6.78;;;20.00;48.60;;;;;;4994426;28;20046;-63
2022/01/26 04:32:09;;;;;;;10.75;7.80;;;20.00;48.60;;;;;;4976361;28;20564;-63
2022/01/26 04:34:35;;;;;;;12.20;7.22;;;20.00;48.50;;;;;;4994314;28;20046;-63
2022/01/26 04:40:08;;;;;;;11.40;7.30;;;20.10;48.60;;;;;;4953548;29;20053;-64
2022/01/26 04:45:32;;;;;;;10.60;6.75;;;20.10;48.70;;;;;;4954895;28;20541;-63
2022/01/26 04:47:57;;;;;;;12.95;6.65;;;20.10;48.60;;;;;;4994367;28;20046;-63
2022/01/26 04:50:23;;;;;;;9.50;6.32;;;20.10;48.50;;;;;;4994498;28;20459;-63
2022/01/26 04:52:48;;;;;;;10.15;6.93;;;20.10;48.60;;;;;;4993186;28;20042;-63
2022/01/26 04:55:14;;;;;;;11.00;6.70;;;20.10;48.50;;;;;;4994145;28;20042;-63
2022/01/26 04:57:40;;;;;;;9.57;7.07;;;20.10;48.50;;;;;;4994012;28;20390;-63
2022/01/26 05:00:06;;;;;;;11.75;6.75;;;20.10;48.50;;;;;;4975650;28;20514;-63
2022/01/26 05:02:32;;;;;;;10.02;6.05;;;20.10;48.50;;;;;;5002828;28;20409;-63
2022/01/26 05:04:57;;;;;;;9.80;6.63;;;20.10;48.50;;;;;;4995281;28;20045;-63
2022/01/26 05:07:23;;;;;;;9.60;6.43;;;20.10;48.50;;;;;;5012620;28;20064;-63
2022/01/26 05:09:48;;;;;;;11.48;7.43;;;20.10;48.50;;;;;;5013270;28;20050;-63
2022/01/26 05:12:15;;;;;;;9.32;6.65;;;20.10;48.40;;;;;;5013562;28;20041;-63
2022/01/26 05:14:43;;;;;;;10.55;6.63;;;20.10;48.30;;;;;;5011041;28;20096;-63
2022/01/26 05:17:08;;;;;;;10.73;7.20;;;20.10;48.40;;;;;;4993777;28;20054;-63
2022/01/26 05:19:34;;;;;;;10.73;7.10;;;20.10;48.40;;;;;;4992774;28;20382;-63
2022/01/26 05:22:00;;;;;;;8.57;6.13;;;20.20;48.40;;;;;;4993785;28;20049;-63
2022/01/26 05:24:25;;;;;;;9.73;6.40;;;20.20;48.40;;;;;;4993353;28;20046;-63
2022/01/26 05:26:51;;;;;;;9.93;6.18;;;20.20;48.40;;;;;;4992736;28;20102;-63
2022/01/26 05:29:16;;;;;;;8.48;5.95;;;20.20;48.40;;;;;;4993645;28;20042;-63
2022/01/26 05:31:42;;;;;;;9.68;6.63;;;20.20;48.40;;;;;;4975809;28;20054;-63
2022/01/26 05:34:07;;;;;;;9.60;6.35;;;20.20;48.40;;;;;;4992602;28;20043;-63
2022/01/26 05:36:32;;;;;;;9.05;6.00;;;20.20;48.40;;;;;;4992934;28;20517;-63
2022/01/26 05:38:58;;;;;;;10.82;6.15;;;20.20;48.30;;;;;;4993677;28;20046;-63
2022/01/26 05:41:24;;;;;;;9.57;6.38;;;20.20;48.40;;;;;;4992446;28;20038;-63
2022/01/26 05:43:49;;;;;;;9.68;6.05;;;20.20;48.40;;;;;;4993462;28;20458;-63
2022/01/26 05:46:49;;;;;;;8.60;5.97;;;20.20;48.30;;;;;;4993233;28;20486;-63
2022/01/26 05:49:06;;;;;;;9.02;5.90;;;20.20;48.30;;;;;;4988634;28;20050;-63
2022/01/26 05:51:33;;;;;;;9.20;6.05;;;20.20;48.30;;;;;;4993324;28;20046;-64
2022/01/26 05:53:59;;;;;;;8.73;5.97;;;20.20;48.30;;;;;;4993542;28;20393;-63
2022/01/26 05:56:24;;;;;;;9.15;6.38;;;20.20;48.30;;;;;;4992348;28;20540;-63
2022/01/26 05:58:50;;;;;;;9.05;6.20;;;20.20;48.30;;;;;;4993338;28;20401;-63
2022/01/26 06:01:16;;;;;;;9.02;5.82;;;20.20;48.20;;;;;;4993119;28;20054;-63
2022/01/26 06:03:41;;;;;;;9.02;6.00;;;20.20;48.20;;;;;;4992128;28;20061;-63
2022/01/26 06:06:07;;;;;;;9.70;6.05;;;20.20;48.20;;;;;;4993721;28;20043;-63
2022/01/26 06:08:32;;;;;;;8.98;5.97;;;20.20;49.00;;;;;;4993054;28;20379;-63
2022/01/26 06:10:59;;;;;;;9.60;6.05;;;20.20;48.20;;;;;;4992471;28;20046;-63
2022/01/26 06:13:25;;;;;;;8.05;5.70;;;20.20;48.20;;;;;;4992809;28;20061;-63
2022/01/26 06:15:51;;;;;;;8.20;5.70;;;20.20;48.20;;;;;;4992423;28;20054;-64
2022/01/26 06:18:16;;;;;;;9.98;5.82;;;20.20;48.20;;;;;;4993166;28;20061;-63
2022/01/26 06:20:42;;;;;;;8.95;6.00;;;20.20;48.20;;;;;;4992999;28;20042;-63
2022/01/26 06:23:07;;;;;;;9.75;5.55;;;20.20;48.20;;;;;;4992519;28;20042;-63
2022/01/26 06:25:33;;;;;;;10.48;6.00;;;20.20;48.20;;;;;;4992537;28;20042;-63
2022/01/26 06:28:00;;;;;;;10.15;6.57;;;20.20;48.20;;;;;;4992732;28;20042;-63
2022/01/26 06:30:26;;;;;;;8.63;5.95;;;20.20;48.20;;;;;;4991877;28;20474;-63
2022/01/26 06:32:52;;;;;;;8.95;5.65;;;20.20;48.10;;;;;;4975773;28;20530;-63
2022/01/26 06:35:17;;;;;;;9.43;6.07;;;20.20;48.10;;;;;;4991605;28;20057;-63
2022/01/26 06:37:44;;;;;;;9.52;5.93;;;20.20;48.10;;;;;;4974912;28;20077;-63
2022/01/26 06:40:09;;;;;;;9.27;5.85;;;20.20;48.10;;;;;;4993041;28;20552;-63
2022/01/26 06:42:49;;;;;;;9.98;6.18;;;20.20;48.00;;;;;;4992438;28;20046;-63
2022/01/26 06:45:21;;;;;;;10.50;6.00;;;20.20;48.00;;;;;;4996067;28;20065;-63
2022/01/26 06:50:31;;;;;;;11.25;6.15;;;20.20;48.00;;;;;;4996385;28;20059;-63
2022/01/26 06:52:56;;;;;;;10.52;5.93;;;20.30;48.10;;;;;;4995454;28;20046;-63
2022/01/26 06:55:22;;;;;;;10.07;6.50;;;20.20;48.00;;;;;;4996446;28;20050;-63
2022/01/26 06:57:47;;;;;;;9.35;5.38;;;20.20;48.00;;;;;;4996109;28;20050;-63
2022/01/26 07:00:13;;;;;;;8.98;6.00;;;20.30;48.00;;;;;;4995415;28;20117;-64
2022/01/26 07:02:42;;;;;;;9.23;5.90;;;20.30;48.00;;;;;;4995846;28;20049;-63
2022/01/26 07:05:09;;;;;;;8.93;6.40;;;20.30;48.00;;;;;;4995639;28;20050;-63
2022/01/26 07:07:34;;;;;;;11.23;5.93;;;20.30;48.00;;;;;;4995912;28;20053;-63
2022/01/26 07:10:00;;;;;;;9.93;6.72;;;20.30;48.00;;;;;;4996368;28;20054;-63
2022/01/26 07:12:25;;;;;;;11.73;6.03;;;20.30;47.90;;;;;;4994645;28;20069;-63
2022/01/26 07:21:16;;;;;;;9.70;5.93;;;20.30;48.00;;;;;;4994721;28;20437;-63
2022/01/26 07:23:15;;;;;;;10.48;6.70;;;20.30;48.10;;;;;;4995594;28;20053;-63
2022/01/26 07:25:41;;;;;;;9.90;5.82;;;20.30;48.20;;;;;;4995589;28;20425;-63
2022/01/26 07:28:06;;;;;;;11.45;6.35;;;20.30;48.10;;;;;;4998224;28;20128;-63
2022/01/26 07:30:34;;;;;;;9.07;5.78;;;20.30;48.20;;;;;;5014853;28;20042;-62
2022/01/26 07:32:59;;;;;;;10.20;5.47;;;20.30;48.50;;;;;;5015312;28;20050;-62
2022/01/26 07:35:25;;;;;;;9.68;6.07;;;20.30;48.70;;;;;;5014519;28;20042;-63
2022/01/26 07:37:53;;;;;;;9.27;5.55;;;20.30;48.70;;;;;;5015139;28;20136;-63
2022/01/26 07:40:18;;;;;;;8.85;5.95;;;20.30;48.80;;;;;;5014502;28;20049;-63
2022/01/26 07:42:44;;;;;;;13.38;5.43;;;20.30;48.80;;;;;;5011686;28;20390;-64
2022/01/26 07:45:10;;;;;;;10.02;5.60;;;20.30;49.00;;;;;;5014711;28;20046;-63
2022/01/26 07:47:37;;;;;;;9.27;5.20;;;20.40;49.10;;;;;;5013664;28;20449;-62
2022/01/26 07:50:06;;;;;;;10.18;5.38;;;20.40;49.20;;;;;;5014984;28;20084;-63
2022/01/26 07:52:35;;;;;;;9.38;5.60;;;20.40;49.20;;;;;;5014785;28;20038;-63
2022/01/26 07:55:01;;;;;;;12.07;5.97;;;20.40;49.20;;;;;;5014235;28;20057;-63
2022/01/26 07:57:27;;;;;;;7.93;5.25;;;20.40;49.20;;;;;;5014508;28;20065;-63
2022/01/26 07:59:53;;;;;;;8.00;5.45;;;20.40;49.20;;;;;;5014730;28;20085;-62
2022/01/26 08:02:20;;;;;;;9.43;5.40;;;20.40;49.20;;;;;;5013484;28;20050;-63
2022/01/26 08:04:45;;;;;;;9.00;5.53;;;20.40;49.10;;;;;;5014374;28;20131;-63
2022/01/26 08:07:11;;;;;;;9.52;5.63;;;20.40;49.00;;;;;;5014789;28;20502;-65
2022/01/26 08:09:42;;;;;;;10.30;5.70;;;20.40;48.90;;;;;;4996207;28;20513;-64
2022/01/26 08:12:08;;;;;;;9.95;5.78;;;20.40;48.80;;;;;;5014306;28;20120;-63
2022/01/26 08:14:33;;;;;;;9.73;6.40;;;20.40;48.70;;;;;;5014165;28;20049;-61
2022/01/26 08:16:59;;;;;;;10.10;6.05;;;20.40;48.70;;;;;;5014014;28;20054;-61
2022/01/26 08:19:24;;;;;;;9.88;5.40;;;20.40;48.70;;;;;;5013967;28;20049;-61
2022/01/26 08:21:50;;;;;;;10.05;6.03;;;20.40;48.80;;;;;;5014507;28;20046;-61
2022/01/26 08:24:16;;;;;;;10.25;5.75;;;20.40;48.90;;;;;;5013712;28;20049;-62
2022/01/26 08:26:46;;;;;;;9.82;6.25;;;20.40;48.90;;;;;;5013688;28;20045;-63
2022/01/26 08:29:18;;;;;;;9.77;6.10;;;20.40;48.80;;;;;;5013941;28;20441;-63
2022/01/26 08:31:44;;;;;;;11.93;5.93;;;20.40;48.70;;;;;;5013635;28;20576;-63
2022/01/26 08:34:10;;;;;;;11.32;6.32;;;20.40;48.70;;;;;;5013830;28;20046;-61
2022/01/26 08:36:35;;;;;;;9.75;6.10;;;20.40;48.60;;;;;;5012948;28;20088;-61
2022/01/26 08:39:01;;;;;;;12.13;6.18;;;20.40;48.90;;;;;;5013929;28;20141;-63
2022/01/26 08:41:28;;;;;;;12.73;7.10;;;20.40;48.70;;;;;;5013597;28;20125;-62
2022/01/26 08:43:53;;;;;;;11.05;5.82;;;20.40;48.70;;;;;;5012906;28;20049;-63
2022/01/26 08:46:19;;;;;;;11.13;6.18;;;20.40;48.70;;;;;;5013777;28;20046;-63
2022/01/26 08:48:44;;;;;;;10.43;6.15;;;20.40;48.60;;;;;;5013496;28;20117;-63
2022/01/26 08:51:10;;;;;;;10.32;6.65;;;20.40;48.60;;;;;;5013082;28;20049;-62
2022/01/26 08:53:35;;;;;;;11.70;6.70;;;20.40;48.60;;;;;;5013576;28;20496;-63
2022/01/26 08:56:01;;;;;;;11.07;6.68;;;20.40;48.60;;;;;;5013710;28;20080;-64
2022/01/26 08:58:26;;;;;;;10.90;6.75;;;20.40;48.60;;;;;;5003757;28;20367;-62
2022/01/26 09:00:54;;;;;;;9.60;6.35;;;20.40;48.70;;;;;;5003956;28;20405;-62
2022/01/26 09:03:20;;;;;;;10.68;6.68;;;20.40;48.80;;;;;;5001736;28;20053;-62
2022/01/26 09:05:45;;;;;;;11.98;6.82;;;20.40;48.80;;;;;;4992577;28;20039;-62
2022/01/26 09:08:11;;;;;;;11.70;6.82;;;20.40;48.80;;;;;;4993808;28;20390;-62
2022/01/26 09:10:39;;;;;;;13.25;7.15;;;20.40;48.80;;;;;;4993587;28;20046;-61
2022/01/26 09:13:04;;;;;;;11.77;6.80;;;20.40;48.80;;;;;;4993052;28;20042;-61
2022/01/26 09:15:31;;;;;;;10.93;6.90;;;20.40;48.80;;;;;;4993351;28;20043;-61
2022/01/26 09:17:58;;;;;;;12.63;6.78;;;20.40;48.70;;;;;;4992543;28;20051;-61
2022/01/26 09:20:23;;;;;;;11.43;6.45;;;20.40;48.70;;;;;;4992018;28;20068;-61
2022/01/26 09:22:49;;;;;;;13.48;7.53;;;20.40;48.70;;;;;;4992160;28;20493;-61
2022/01/26 09:25:14;;;;;;;12.50;7.20;;;20.40;48.70;;;;;;4993848;28;20049;-61
2022/01/26 09:27:40;;;;;;;12.43;6.90;;;20.40;48.70;;;;;;4992550;28;20050;-61
2022/01/26 09:30:06;;;;;;;12.05;7.13;;;20.40;48.70;;;;;;4993471;28;20046;-61
2022/01/26 09:32:32;;;;;;;11.88;6.85;;;20.40;48.70;;;;;;4993292;28;20038;-61
2022/01/26 09:34:57;;;;;;;12.68;7.22;;;20.40;48.70;;;;;;4975185;28;20564;-61
2022/01/26 09:37:23;;;;;;;11.32;6.75;;;20.40;49.40;;;;;;4993669;28;20096;-61
2022/01/26 09:39:48;;;;;;;11.40;7.20;;;20.40;48.70;;;;;;4992548;28;20062;-61
2022/01/26 09:42:15;;;;;;;10.70;7.47;;;20.40;48.70;;;;;;4993166;28;20046;-62
2022/01/26 09:44:40;;;;;;;13.00;7.68;;;20.40;48.70;;;;;;4993071;28;20038;-61
2022/01/26 09:47:06;;;;;;;12.60;7.68;;;20.40;48.60;;;;;;4992391;28;20410;-62
2022/01/26 09:49:33;;;;;;;13.40;8.25;;;20.40;48.50;;;;;;4992080;28;20478;-61
2022/01/26 09:52:06;;;;;;;11.98;7.55;;;20.40;48.50;;;;;;4993200;28;20121;-61
2022/01/26 09:54:31;;;;;;;11.73;8.13;;;20.40;48.50;;;;;;4992392;28;20145;-61
2022/01/26 09:57:03;;;;;;;10.45;7.53;;;20.40;48.50;;;;;;4993368;28;20126;-61
2022/01/26 09:59:29;;;;;;;13.93;8.27;;;20.40;48.50;;;;;;4992720;28;20598;-61
2022/01/26 10:01:54;;;;;;;13.55;7.72;;;20.40;48.50;;;;;;4992223;28;20067;-61
2022/01/26 10:04:28;;;;;;;14.88;8.23;;;20.40;48.50;;;;;;4993131;28;20110;-61
2022/01/26 10:07:07;;;;;;;12.73;8.80;;;20.40;48.50;;;;;;4993349;28;20039;-61
2022/01/26 10:17:37;;;;;;;15.43;9.43;;;20.40;48.30;;;;;;5012191;28;20061;-61
2022/01/26 10:20:03;;;;;;;15.35;8.75;;;20.40;48.30;;;;;;5016490;28;20046;-61
2022/01/26 10:22:35;;;;;;;13.57;8.77;;;20.40;48.30;;;;;;5015543;28;20141;-61
2022/01/26 10:25:15;;;;;;;13.30;8.60;;;20.40;48.30;;;;;;5016150;28;20135;-61
2022/01/26 10:27:45;;;;;;;14.50;9.60;;;20.40;48.20;;;;;;5015856;28;20448;-61
2022/01/26 10:30:13;;;;;;;14.85;9.52;;;20.50;48.30;;;;;;5015587;28;20042;-61
2022/01/26 10:32:39;;;;;;;;;;;20.50;48.30;;;;;;5016277;28;20053;-61
2022/01/26 10:35:05;;;;;;;14.70;9.00;;;20.40;48.30;;;;;;5016438;28;19992;-61
2022/01/26 10:37:32;;;;;;;14.63;9.60;;;20.40;48.30;;;;;;5015279;28;20121;-61
2022/01/26 10:40:12;;;;;;;15.35;9.80;;;20.50;48.30;;;;;;5016325;28;20088;-61
2022/01/26 10:42:38;;;;;;;12.57;8.55;;;20.40;48.30;;;;;;5015804;28;20052;-61
2022/01/26 10:45:13;;;;;;;14.55;9.02;;;20.50;48.30;;;;;;5015580;28;20045;-61
2022/01/26 10:47:43;;;;;;;13.80;9.65;;;20.50;48.30;;;;;;5015755;28;20405;-61
2022/01/26 10:50:32;;;;;;;16.60;9.60;;;20.50;48.40;;;;;;5015430;28;20065;-61
2022/01/26 10:53:11;;;;;;;15.80;9.40;;;20.50;48.40;;;;;;5016368;28;20034;-61
2022/01/26 10:55:37;;;;;;;13.73;10.05;;;20.50;48.40;;;;;;5015716;28;20124;-61
2022/01/26 10:58:03;;;;;;;12.98;9.38;;;20.50;48.40;;;;;;5015149;28;20088;-61
2022/01/26 11:00:41;;;;;;;14.30;9.63;;;20.50;48.40;;;;;;5015450;28;20177;-61
2022/01/26 11:03:06;;;;;;;13.93;9.38;;;20.50;48.40;;;;;;5016096;28;20042;-61
2022/01/26 11:05:32;;;;;;;13.93;9.90;;;20.50;48.40;;;;;;5015012;28;20050;-61
2022/01/26 11:07:58;;;;;;;16.20;9.80;;;20.50;48.40;;;;;;5015934;28;20470;-61
2022/01/26 11:10:37;;;;;;;13.77;9.57;;;20.50;48.40;;;;;;5015878;28;20183;-61
2022/01/26 11:13:03;;;;;;;14.10;9.55;;;20.50;48.40;;;;;;5014930;28;20044;-61
2022/01/26 11:15:29;;;;;;;21.98;12.68;;;20.50;48.40;;;;;;5014576;28;20050;-60
2022/01/26 11:18:08;;;;;;;23.95;15.75;;;20.50;47.90;;;;;;5015600;28;20042;-60
2022/01/26 11:20:49;;;;;;;26.20;16.60;;;20.50;47.00;;;;;;5014999;28;20041;-61
2022/01/26 11:23:20;;;;;;;27.98;17.02;;;20.40;46.60;;;;;;5015401;28;20038;-60
2022/01/26 11:25:47;;;;;;;24.60;15.65;;;20.40;46.70;;;;;;5014025;28;20486;-58
2022/01/26 11:28:17;;;;;;;27.38;17.73;;;20.40;46.70;;;;;;5015391;28;20046;-60
2022/01/26 11:30:43;;;;;;;25.30;15.93;;;20.40;46.40;;;;;;5014700;28;20116;-61
2022/01/26 11:33:18;;;;;;;26.80;16.45;;;20.40;46.50;;;;;;5014751;28;20125;-60
2022/01/26 11:35:47;;;;;;;24.80;15.82;;;20.40;46.50;;;;;;5014878;28;20496;-61
2022/01/26 11:46:35;;;;;;;21.05;13.45;;;20.40;46.80;;;;;;5013932;28;20054;-60
2022/01/26 11:49:05;;;;;;;20.38;12.77;;;20.40;46.90;;;;;;4997645;28;20050;-60
2022/01/26 11:51:57;;;;;;;21.67;13.23;;;20.50;47.00;;;;;;5014801;28;20130;-60
2022/01/26 11:54:25;;;;;;;19.70;13.55;;;20.50;47.00;;;;;;5010296;28;20054;-60
2022/01/26 11:56:58;;;;;;;20.40;13.20;;;20.50;47.10;;;;;;5014470;28;20129;-60
2022/01/26 11:59:25;;;;;;;21.55;13.10;;;20.50;47.10;;;;;;4997373;28;20054;-61
2022/01/26 12:01:59;;;;;;;18.80;12.23;;;20.50;47.20;;;;;;5013675;28;20486;-61
2022/01/26 12:04:25;;;;;;;18.00;12.63;;;20.50;47.20;;;;;;5014498;28;20056;-61
2022/01/26 12:06:58;;;;;;;19.30;11.95;;;20.50;47.40;;;;;;5014345;28;20521;-61
2022/01/26 12:09:24;;;;;;;18.08;12.25;;;20.50;47.70;;;;;;5013958;28;20046;-61
2022/01/26 12:11:55;;;;;;;16.95;11.65;;;20.50;47.90;;;;;;5014282;28;20177;-60
2022/01/26 12:14:21;;;;;;;19.25;11.77;;;20.50;48.10;;;;;;5014283;28;20088;-59
2022/01/26 12:16:49;;;;;;;19.63;12.77;;;20.50;48.10;;;;;;5010194;28;20117;-60
2022/01/26 12:19:35;;;;;;;17.88;11.68;;;20.60;48.20;;;;;;5009525;28;20046;-61
2022/01/26 12:38:41;;;;;;;20.77;11.63;;;20.60;48.60;;;;;;5013973;28;20050;-60
2022/01/26 12:43:47;;;;;;;16.00;11.23;;;20.60;48.60;;;;;;5013084;28;20046;-61
2022/01/26 12:46:16;;;;;;;;;;;20.60;48.70;;;;;;4997190;28;20042;-60
2022/01/26 12:48:46;;;;;;;19.08;11.55;;;20.60;48.70;;;;;;5013670;28;19926;-60
2022/01/26 12:51:12;;;;;;;16.67;11.57;;;20.60;48.60;;;;;;4995341;28;20120;-61
2022/01/26 12:53:38;;;;;;;16.55;11.10;;;20.60;48.70;;;;;;5005393;28;20160;-59
2022/01/26 12:56:05;;;;;;;16.83;10.85;;;20.60;48.70;;;;;;5012349;28;20045;-65
2022/01/26 12:58:33;;;;;;;19.83;12.00;;;20.70;48.60;;;;;;5012266;28;20401;-59
2022/01/26 13:01:09;;;;;;;19.65;11.93;;;20.70;48.40;;;;;;5013394;28;20482;-60
2022/01/26 13:03:39;;;;;;;18.40;11.25;;;20.70;48.30;;;;;;5012817;28;20477;-59
2022/01/26 13:06:23;;;;;;;19.55;10.73;;;20.70;48.30;;;;;;5013701;28;20139;-58
2022/01/26 13:08:56;;;;;;;19.63;11.27;;;20.70;48.50;;;;;;5010772;28;20125;-59
2022/01/26 13:11:29;;;;;;;17.27;10.32;;;20.70;48.70;;;;;;5001317;28;20109;-58
2022/01/26 13:14:17;;;;;;;16.33;10.30;;;20.70;48.80;;;;;;4995434;28;20048;-59
2022/01/26 13:16:54;;;;;;;17.45;10.43;;;20.70;49.00;;;;;;4997735;28;20069;-59
2022/01/26 13:19:37;;;;;;;18.15;10.02;;;20.70;49.10;;;;;;4998251;28;20085;-58
2022/01/26 13:22:33;;;;;;;15.65;9.27;;;20.70;49.10;;;;;;4998112;28;20486;-59
2022/01/26 13:27:38;;;;;;;15.32;9.82;;;20.80;49.40;;;;;;4999352;28;20143;-59
2022/01/26 13:30:41;;;;;;;18.05;9.48;;;20.80;49.50;;;;;;4998254;28;20038;-59
2022/01/26 13:36:02;;;;;;;14.82;9.20;;;20.80;49.70;;;;;;5012529;28;20394;-59
2022/01/26 13:41:27;;;;;;;16.70;9.45;;;20.80;50.50;;;;;;5012841;28;20046;-58
2022/01/26 13:47:06;;;;;;;13.32;8.10;;;20.90;50.00;;;;;;5011930;28;20054;-58
2022/01/26 13:52:19;;;;;;;18.67;8.60;;;20.90;50.80;;;;;;5013013;28;20045;-59
2022/01/26 13:57:42;;;;;;;13.35;8.38;;;20.90;50.30;;;;;;5012451;28;20520;-59
2022/01/26 14:00:07;;;;;;;13.75;7.97;;;20.90;50.30;;;;;;5011685;28;20133;-59
2022/01/26 14:02:34;;;;;;;17.00;8.05;;;20.90;50.50;;;;;;5012182;28;20409;-58
2022/01/26 14:05:00;;;;;;;14.55;8.30;;;20.90;50.50;;;;;;5011942;28;20132;-59
2022/01/26 14:07:25;;;;;;;14.38;8.43;;;20.90;50.40;;;;;;5011727;28;20136;-58
2022/01/26 14:09:51;;;;;;;15.65;8.65;;;20.90;50.50;;;;;;5010020;28;20056;-58
2022/01/26 14:12:21;;;;;;;13.35;7.78;;;20.90;50.40;;;;;;5011136;28;20049;-58
2022/01/26 14:14:52;;;;;;;12.95;6.90;;;20.90;50.40;;;;;;5002585;28;20056;-59
2022/01/26 14:17:27;;;;;;;15.20;7.60;;;20.90;50.60;;;;;;5000313;28;20054;-59
2022/01/26 14:25:28;;;;;;;12.85;7.82;;;20.90;51.50;;;;;;4970145;28;20408;-59
2022/01/26 14:27:57;;;;;;;12.40;7.60;;;20.90;50.80;;;;;;4997617;28;20095;-58
2022/01/26 14:33:13;;;;;;;12.93;7.30;;;21.00;50.90;;;;;;5012771;28;20046;-59
2022/01/26 14:36:18;;;;;;;13.02;7.70;;;21.00;50.90;;;;;;5011636;28;20081;-59
2022/01/26 15:00:27;;;;;;;12.23;7.40;;;21.00;51.40;;;;;;5012641;28;20049;-59
2022/01/26 15:29:54;;;;;;;10.77;6.28;;;21.00;51.40;;;;;;5011987;28;20129;-60
2022/01/26 15:33:22;;;;;;;13.07;6.97;;;21.00;51.50;;;;;;5014875;28;20073;-62
2022/01/26 15:41:37;;;;;;;11.02;6.80;;;21.00;51.50;;;;;;5006958;28;20490;-61
2022/01/26 15:52:14;;;;;;;9.90;5.88;;;21.00;51.50;;;;;;5013887;28;20069;-61
2022/01/26 16:05:57;;;;;;;12.55;5.57;;;21.00;51.10;;;;;;5016500;28;20145;-61
2022/01/26 16:08:34;;;;;;;12.18;6.50;;;21.00;51.00;;;;;;5013083;28;20103;-61
2022/01/26 16:16:34;;;;;;;9.90;6.47;;;21.00;51.00;;;;;;5001801;28;20081;-61
2022/01/26 16:20:05;;;;;;;11.10;6.78;;;21.00;51.00;;;;;;5012249;28;20053;-61
2022/01/26 16:26:17;;;;;;;12.63;6.88;;;21.00;50.80;;;;;;5001697;28;20041;-61
2022/01/26 16:38:34;;;;;;;12.80;6.53;;;21.00;50.50;;;;;;5004619;28;20050;-60
2022/01/26 18:14:00;;;;;;;11.10;5.57;;;21.30;52.00;;;;;;4997437;28;20103;-61
2022/01/26 18:16:28;;;;;;;8.68;4.85;;;21.30;52.00;;;;;;5000541;28;20417;-61
2022/01/26 18:32:58;;;;;;;8.32;4.82;;;21.30;52.00;;;;;;4999793;28;20039;-61
2022/01/26 18:51:34;;;;;;;11.85;5.63;;;21.30;51.70;;;;;;5001417;28;20046;-62
2022/01/26 18:54:00;;;;;;;9.00;5.22;;;21.20;51.60;;;;;;5001666;28;20056;-61
2022/01/26 18:56:27;;;;;;;10.25;5.47;;;21.20;51.60;;;;;;4995184;28;20042;-61
2022/01/26 18:58:53;;;;;;;7.50;4.63;;;21.20;51.60;;;;;;4996598;28;20050;-61